Terminal Aerodrome Forecast
Issued by NWS Topeka, KS

Home | Current Version | Previous Version | Text Only | Print | Product List | Glossary Off
Versions: 1 2 3 4 5 6 7 8 9 10 11 12 13

143
FTUS43 KTOP 202329
TAFTOP
TAF
KTOP 202329Z 2100/2124 11009KT P6SM BKN250
     FM210800 10005KT P6SM OVC100
     FM211000 10005KT P6SM VCSH OVC070
     FM211200 10005KT 6SM -RA OVC025=

USA.gov is the U.S. government's official web portal to all federal, state and local government web resources and services.